createdAt,value
2023-04-24T00:01:46.131Z,97562.78
2023-04-24T00:06:52.387Z,97561.66
2023-04-24T00:11:57.846Z,97544.91
2023-04-24T00:17:06.287Z,97540.16
2023-04-24T00:22:12.197Z,97536.03
2023-04-24T00:27:17.605Z,97536.34
2023-04-24T00:32:25.476Z,97535.16
2023-04-24T00:37:30.806Z,97535.00
2023-04-24T00:42:36.582Z,97547.41
2023-04-24T00:47:46.154Z,97555.66
2023-04-24T00:52:51.906Z,97546.13
2023-04-24T00:57:57.356Z,97542.44
2023-04-24T01:03:08.860Z,97549.19
2023-04-24T01:08:14.375Z,97549.03
2023-04-24T01:13:19.564Z,97533.00
2023-04-24T01:18:28.025Z,97536.34
2023-04-24T01:23:36.048Z,97533.00
2023-04-24T01:28:41.827Z,97536.03
2023-04-24T01:33:47.179Z,97526.44
2023-04-24T01:38:57.909Z,97543.00
2023-04-24T01:44:05.305Z,97539.50
2023-04-24T01:49:10.834Z,97534.44
2023-04-24T01:54:19.697Z,97530.94
2023-04-24T01:59:25.732Z,97534.03
2023-04-24T02:04:31.117Z,97522.25
2023-04-24T02:09:38.880Z,97530.59
2023-04-24T02:14:44.703Z,97525.88
2023-04-24T02:19:50.013Z,97524.63
2023-04-24T02:24:58.260Z,97528.19
2023-04-24T02:30:05.685Z,97530.25
2023-04-24T02:35:12.078Z,97527.72
2023-04-24T02:40:19.866Z,97526.63
2023-04-24T02:45:25.548Z,97523.03
2023-04-24T02:50:30.689Z,97521.22
2023-04-24T02:55:38.409Z,97518.09
2023-04-24T03:00:44.528Z,97513.47
2023-04-24T03:05:49.685Z,97519.84
2023-04-24T03:10:57.738Z,97522.34
2023-04-24T03:16:06.285Z,97519.16
2023-04-24T03:21:11.381Z,97519.69
2023-04-24T03:26:19.791Z,97520.13
2023-04-24T03:31:39.496Z,97511.19
2023-04-24T03:36:45.271Z,97516.19
2023-04-24T03:41:53.276Z,97525.84
2023-04-24T03:47:03.390Z,97520.06
2023-04-24T03:52:10.329Z,97531.28
2023-04-24T03:57:18.327Z,97541.78
2023-04-24T04:02:35.788Z,97549.16
2023-04-24T04:07:41.024Z,97550.81
2023-04-24T04:12:50.581Z,97552.59
2023-04-24T04:17:56.211Z,97564.59
2023-04-24T04:23:03.938Z,97562.59
2023-04-24T04:28:33.009Z,97564.69
2023-04-24T04:33:43.611Z,97565.34
2023-04-24T04:38:49.853Z,97561.41
2023-04-24T04:44:14.464Z,97559.06
2023-04-24T04:49:22.793Z,97551.38
2023-04-24T04:54:28.009Z,97566.03
2023-04-24T04:59:38.375Z,97569.97
2023-04-24T05:04:49.288Z,97565.81
2023-04-24T05:09:57.579Z,97568.25
2023-04-24T05:15:06.097Z,97569.84
2023-04-24T05:20:14.788Z,97578.03
2023-04-24T05:25:20.956Z,97582.63
2023-04-24T05:30:42.854Z,97579.34
2023-04-24T05:35:56.384Z,97576.75
2023-04-24T05:41:04.471Z,97570.84
2023-04-24T05:46:15.488Z,97573.38
2023-04-24T05:51:21.973Z,97579.66
2023-04-24T05:56:28.656Z,97579.91
2023-04-24T06:01:37.753Z,97573.38
2023-04-24T06:06:57.016Z,97568.38
2023-04-24T06:12:10.570Z,97569.63
2023-04-24T06:17:36.178Z,97584.47
2023-04-24T06:22:41.681Z,97579.56
2023-04-24T06:27:48.706Z,97575.38
2023-04-24T06:33:03.123Z,97570.47
2023-04-24T06:38:13.160Z,97576.88
2023-04-24T06:43:20.814Z,97572.94
2023-04-24T06:48:31.595Z,97564.19
2023-04-24T06:53:36.705Z,97567.34
2023-04-24T06:58:44.213Z,97575.31
2023-04-24T07:03:53.896Z,97581.06
2023-04-24T07:09:07.138Z,97585.16
2023-04-24T07:14:12.745Z,97595.91
2023-04-24T07:19:20.937Z,97599.72
2023-04-24T07:24:30.863Z,97600.53
2023-04-24T07:29:37.154Z,97597.50
2023-04-24T07:34:44.987Z,97591.59
2023-04-24T07:39:50.210Z,97592.84
2023-04-24T07:44:55.371Z,97601.28
2023-04-24T07:50:04.215Z,97600.50
2023-04-24T07:55:15.949Z,97606.97
2023-04-24T08:00:23.646Z,97606.66
2023-04-24T08:05:32.018Z,97617.28
2023-04-24T08:16:19.674Z,97615.59
2023-04-24T08:21:37.404Z,97621.09
2023-04-24T08:26:42.593Z,97605.81
2023-04-24T08:32:00.501Z,97600.69
2023-04-24T08:37:09.981Z,97604.78
2023-04-24T08:42:17.432Z,97608.84
2023-04-24T08:47:31.658Z,97618.84
2023-04-24T08:52:42.315Z,97611.69
2023-04-24T08:57:55.487Z,97617.09
2023-04-24T09:03:02.673Z,97621.59
2023-04-24T09:08:14.865Z,97618.72
2023-04-24T09:13:24.795Z,97609.00
2023-04-24T09:18:31.598Z,97609.28
2023-04-24T09:23:42.202Z,97611.88
2023-04-24T09:28:47.523Z,97613.47
2023-04-24T09:34:01.696Z,97608.78
2023-04-24T09:39:16.775Z,97614.81
2023-04-24T09:44:24.489Z,97617.56
2023-04-24T09:49:31.760Z,97619.22
2023-04-24T09:54:39.879Z,97620.50
2023-04-24T09:59:49.827Z,97612.22
2023-04-24T10:05:01.816Z,97622.69
2023-04-24T10:10:12.615Z,97620.94
2023-04-24T10:15:22.615Z,97621.50
2023-04-24T10:20:31.947Z,97610.38
2023-04-24T10:25:41.489Z,97616.72
2023-04-24T10:30:49.760Z,97621.00
2023-04-24T10:35:56.533Z,97625.75
2023-04-24T10:41:17.416Z,97614.97
2023-04-24T10:46:25.393Z,97626.25
2023-04-24T10:51:49.416Z,97599.25
2023-04-24T10:57:33.895Z,97611.94
2023-04-24T11:02:41.602Z,97610.16
2023-04-24T11:08:18.807Z,97604.13
2023-04-24T11:13:30.871Z,97605.78
2023-04-24T11:18:46.380Z,97602.72
2023-04-24T11:23:52.108Z,97610.81
2023-04-24T11:29:13.760Z,97611.59
2023-04-24T11:34:19.767Z,97614.38
2023-04-24T11:39:24.785Z,97612.91
2023-04-24T11:44:42.304Z,97618.16
2023-04-24T11:49:47.632Z,97610.56
2023-04-24T11:54:55.398Z,97609.63
2023-04-24T12:00:10.880Z,97616.59
2023-04-24T12:05:32.372Z,97615.94
2023-04-24T12:10:38.739Z,97609.38
2023-04-24T12:15:47.256Z,97614.84
2023-04-24T12:20:52.366Z,97600.94
2023-04-24T12:25:57.941Z,97626.28
2023-04-24T12:31:06.176Z,97622.72
2023-04-24T12:36:14.195Z,97623.03
2023-04-24T12:41:23.059Z,97615.63
2023-04-24T12:46:30.990Z,97623.63
2023-04-24T12:51:36.187Z,97616.78
2023-04-24T12:56:44.672Z,97628.09
2023-04-24T13:01:52.640Z,97622.28
2023-04-24T13:06:59.673Z,97606.06
2023-04-24T13:12:06.546Z,97615.03
2023-04-24T13:17:14.280Z,97611.19
2023-04-24T13:22:19.914Z,97600.28
2023-04-24T13:27:25.055Z,97603.69
2023-04-24T13:32:33.435Z,97601.66
2023-04-24T13:37:40.159Z,97605.47
2023-04-24T13:42:45.368Z,97607.63
2023-04-24T13:47:53.634Z,97593.97
2023-04-24T13:53:02.664Z,97604.38
2023-04-24T13:58:08.733Z,97600.09
2023-04-24T14:03:16.588Z,97593.22
2023-04-24T14:08:21.837Z,97596.97
2023-04-24T14:13:28.982Z,97595.59
2023-04-24T14:18:37.391Z,97602.78
2023-04-24T14:23:43.345Z,97615.78
2023-04-24T14:28:48.709Z,97606.59
2023-04-24T14:33:59.870Z,97592.56
2023-04-24T14:39:08.136Z,97603.78
2023-04-24T14:44:17.683Z,97603.75
2023-04-24T14:49:27.530Z,97601.78
2023-04-24T14:54:32.721Z,97610.22
2023-04-24T14:59:38.457Z,97603.69
2023-04-24T15:04:46.591Z,97609.59
2023-04-24T15:09:52.077Z,97617.75
2023-04-24T15:14:57.192Z,97629.84
2023-04-24T15:20:07.482Z,97633.59
2023-04-24T15:25:12.929Z,97639.13
2023-04-24T15:30:18.386Z,97638.78
2023-04-24T15:35:26.696Z,97641.13
2023-04-24T15:40:32.152Z,97638.41
2023-04-24T15:45:37.366Z,97637.69
2023-04-24T15:50:44.970Z,97660.03
2023-04-24T15:55:49.977Z,97664.50
2023-04-24T16:00:55.283Z,97670.88
2023-04-24T16:06:06.236Z,97658.78
2023-04-24T16:11:11.821Z,97672.34
2023-04-24T16:16:16.930Z,97674.69
2023-04-24T16:21:24.684Z,97687.44
2023-04-24T16:26:29.822Z,97679.22
2023-04-24T16:31:34.894Z,97689.94
2023-04-24T16:36:42.653Z,97697.56
2023-04-24T16:41:47.708Z,97705.31
2023-04-24T16:46:52.916Z,97702.06
2023-04-24T16:52:00.916Z,97684.16
2023-04-24T16:57:08.008Z,97708.75
2023-04-24T17:02:13.505Z,97708.41
2023-04-24T17:07:21.312Z,97717.44
2023-04-24T17:12:28.761Z,97715.84
2023-04-24T17:17:33.866Z,97723.56
2023-04-24T17:22:43.428Z,97731.38
2023-04-24T17:27:50.954Z,97745.69
2023-04-24T17:32:56.116Z,97750.53
2023-04-24T17:38:06.979Z,97741.81
2023-04-24T17:43:12.763Z,97767.78
2023-04-24T17:48:18.368Z,97760.28
2023-04-24T17:53:26.360Z,97767.56
2023-04-24T17:58:32.017Z,97796.00
2023-04-24T18:03:38.598Z,97795.56
2023-04-24T18:08:47.012Z,97810.34
2023-04-24T18:13:52.172Z,97829.31
2023-04-24T18:18:59.676Z,97838.97
2023-04-24T18:24:08.205Z,97841.34
2023-04-24T18:29:13.489Z,97850.13
2023-04-24T18:34:18.668Z,97843.34
2023-04-24T18:39:27.479Z,97850.88
2023-04-24T18:44:32.577Z,97866.88
2023-04-24T18:49:37.984Z,97868.50
2023-04-24T18:54:48.445Z,97885.97
2023-04-24T18:59:54.610Z,97882.44
2023-04-24T19:04:59.800Z,97891.69
2023-04-24T19:10:08.576Z,97903.31
2023-04-24T19:15:14.579Z,97889.69
2023-04-24T19:20:19.965Z,97905.31
2023-04-24T19:25:32.332Z,97908.69
2023-04-24T19:30:38.666Z,97913.72
2023-04-24T19:35:43.776Z,97914.28
2023-04-24T19:40:51.632Z,97910.28
2023-04-24T19:45:58.194Z,97904.59
2023-04-24T19:51:04.118Z,97911.75
2023-04-24T19:56:11.797Z,97922.88
2023-04-24T20:01:16.796Z,97921.06
2023-04-24T20:06:22.137Z,97910.53
2023-04-24T20:11:32.232Z,97910.97
2023-04-24T20:16:38.903Z,97921.53
2023-04-24T20:21:44.142Z,97916.69
2023-04-24T20:26:52.481Z,97915.03
2023-04-24T20:31:58.079Z,97919.31
2023-04-24T20:37:04.239Z,97927.47
2023-04-24T20:42:14.241Z,97933.28
2023-04-24T20:47:19.944Z,97935.56
2023-04-24T20:52:26.349Z,97939.88
2023-04-24T20:57:34.277Z,97937.94
2023-04-24T21:02:42.181Z,97944.22
2023-04-24T21:07:47.457Z,97944.00
2023-04-24T21:12:56.838Z,97949.31
2023-04-24T21:18:02.092Z,97943.44
2023-04-24T21:23:07.218Z,97942.84
2023-04-24T21:28:15.135Z,97935.03
2023-04-24T21:33:22.672Z,97943.59
2023-04-24T21:38:28.227Z,97928.50
2023-04-24T21:43:44.072Z,97938.72
2023-04-24T21:48:50.605Z,97942.16
2023-04-24T21:53:55.842Z,97928.97
2023-04-24T21:59:03.750Z,97931.31
2023-04-24T22:04:09.228Z,97927.22
2023-04-24T22:09:14.642Z,97926.97
2023-04-24T22:14:24.442Z,97929.59
2023-04-24T22:19:30.418Z,97931.63
2023-04-24T22:24:35.467Z,97928.84
2023-04-24T22:29:43.184Z,97922.75
2023-04-24T22:34:48.173Z,97924.31
2023-04-24T22:39:53.178Z,97929.59
2023-04-24T22:45:02.368Z,97930.09
2023-04-24T22:50:08.854Z,97933.78
2023-04-24T22:55:14.284Z,97928.03
2023-04-24T23:00:24.009Z,97935.56
2023-04-24T23:05:29.362Z,97943.38
2023-04-24T23:10:34.521Z,97944.34
2023-04-24T23:15:42.408Z,97948.13
2023-04-24T23:20:48.317Z,97952.28
2023-04-24T23:25:53.466Z,97947.09
2023-04-24T23:31:01.934Z,97940.06
2023-04-24T23:36:07.944Z,97938.66
2023-04-24T23:41:13.521Z,97932.72
2023-04-24T23:46:21.996Z,97930.66
2023-04-24T23:51:27.529Z,97930.53
2023-04-24T23:56:32.647Z,97927.75
